»·PEaware :: AAL250 KDFW-EGLL

AAL250 :: KDFW-EGLL

FLIGHT INFORMATION

Flight Status: Arrived
Operator:
American Airlines
More flights by this operator :: More flights under this callsign
Pilot: Andrew Jones (13363)
Aircraft: BOEING 767-300
(B763)
More flights by this aircraft type
Origin: KDFW Dallas-Ft Worth Intl
United States
Destination: EGLL Heathrow
United Kingdom
More flights between these airports :: More routes between these airports
Route: DALL4 LIT J131 PXV FLM AIR PSB MIP LVZ IGN PUT LFV KANNI N139A PORTI NATV DINIM NATV ELSOX ELTIG EVRIN UL607 NUMPO UP2 BEDEK
File this flight plan on PilotEdge
Remarks:
Altitude:
(Current/Filed)
33,000ft
Speed:
(Current/Filed)
460kts
Departed: 28-Jan-17 01:41 AM
Arrived: 28-Jan-17 01:09 PM
Distance/Time
Traveled:
4115nm/11:28
Distance/Time
To Go:
Arrived

Flight Plot

Page will automatically refresh every two minutes.

Flight plan parsing failed; only flown route is shown


Map Options




Map Legend


Flown Route
Filed Route
Departure Airport
Arrival Airport
Navaid (VOR, NDB)
Fix

Horizontal Profiles

Position Reports

Time Latitude Longitude Heading Altitude Ground
Speed
28-Jan-17 01:40 32.890286 -96.910921 74 7033ft 273kts
28-Jan-17 01:41 32.937565 -96.843906 36 9354ft 280kts
28-Jan-17 01:42 32.979630 -96.753914 67 10613ft 367kts
28-Jan-17 01:43 33.010398 -96.632504 70 13270ft 398kts
28-Jan-17 01:44 33.041785 -96.501968 70 15733ft 423kts
28-Jan-17 01:45 33.074685 -96.364084 71 17972ft 447kts
28-Jan-17 01:46 33.114157 -96.225915 66 19921ft 465kts
28-Jan-17 01:47 33.157971 -96.077993 66 21794ft 485kts
28-Jan-17 01:48 33.203231 -95.924011 66 23518ft 504kts
28-Jan-17 01:49 33.250155 -95.763468 66 25184ft 519kts
28-Jan-17 01:50 33.297886 -95.599248 66 26761ft 533kts
28-Jan-17 01:51 33.346622 -95.430589 65 28249ft 546kts
28-Jan-17 01:52 33.395386 -95.262182 66 29532ft 557kts
28-Jan-17 01:53 33.446026 -95.085318 65 30731ft 568kts
28-Jan-17 01:54 33.497130 -94.905236 65 31878ft 578kts
28-Jan-17 01:55 33.548407 -94.723338 64 33230ft 578kts
28-Jan-17 01:56 33.599010 -94.542771 64 33276ft 575kts
28-Jan-17 01:57 33.649310 -94.362102 64 33280ft 574kts
28-Jan-17 01:58 33.703242 -94.190216 51 33257ft 560kts
28-Jan-17 01:59 33.781895 -94.030519 50 33263ft 556kts
28-Jan-17 02:00 33.860175 -93.872369 49 33265ft 554kts
28-Jan-17 02:01 33.932176 -93.726363 49 33270ft 553kts
28-Jan-17 02:02 33.997992 -93.592375 49 33272ft 552kts
28-Jan-17 02:03 34.074948 -93.435063 49 33275ft 552kts
28-Jan-17 02:04 34.145430 -93.291083 50 33258ft 551kts
28-Jan-17 02:05 34.222518 -93.132731 50 33235ft 550kts
28-Jan-17 02:06 34.299201 -92.973946 50 33212ft 549kts
28-Jan-17 02:07 34.375953 -92.814252 50 33214ft 547kts
28-Jan-17 02:08 34.451609 -92.656175 50 33218ft 547kts
28-Jan-17 02:09 34.527603 -92.496653 50 33222ft 546kts
28-Jan-17 02:10 34.601884 -92.340020 50 33218ft 544kts
28-Jan-17 02:11 34.678424 -92.183977 42 33197ft 533kts
28-Jan-17 02:12 34.776329 -92.054869 35 33204ft 518kts
28-Jan-17 02:13 34.874862 -91.928553 35 33210ft 519kts
28-Jan-17 02:14 34.973550 -91.801630 35 33212ft 516kts
28-Jan-17 02:15 35.071637 -91.675021 35 33213ft 516kts
28-Jan-17 02:16 35.167088 -91.551335 35 33222ft 515kts
28-Jan-17 02:17 35.264633 -91.424464 35 33171ft 514kts
28-Jan-17 02:18 35.359841 -91.300739 35 33151ft 514kts
28-Jan-17 02:19 35.457252 -91.173532 35 33152ft 512kts
28-Jan-17 02:20 35.554215 -91.046029 36 33155ft 512kts
28-Jan-17 02:21 35.650786 -90.918524 36 33130ft 511kts
28-Jan-17 02:22 35.746937 -90.791090 36 33131ft 510kts
28-Jan-17 02:23 35.842942 -90.663364 36 33133ft 510kts
28-Jan-17 02:24 35.938692 -90.535470 36 33132ft 507kts
28-Jan-17 02:25 36.033981 -90.407734 36 33114ft 507kts
28-Jan-17 02:26 36.120983 -90.291322 36 33101ft 508kts
28-Jan-17 02:27 36.215979 -90.163398 36 33102ft 506kts
28-Jan-17 02:28 36.310863 -90.034795 37 33103ft 506kts
28-Jan-17 02:29 36.404354 -89.907591 37 33105ft 505kts
28-Jan-17 02:30 36.497912 -89.779803 37 33102ft 504kts
28-Jan-17 02:31 36.590802 -89.652457 41 33097ft 479kts
28-Jan-17 02:32 36.677766 -89.532694 41 33076ft 466kts
28-Jan-17 02:33 36.764200 -89.413214 41 33077ft 466kts
28-Jan-17 02:34 36.847064 -89.298868 41 33070ft 466kts
28-Jan-17 02:35 36.933369 -89.179170 41 33069ft 466kts
28-Jan-17 02:36 37.019370 -89.059039 42 33060ft 466kts
28-Jan-17 02:37 37.104027 -88.940316 42 33044ft 466kts
28-Jan-17 02:38 37.189625 -88.819826 42 33052ft 466kts
28-Jan-17 02:39 37.275675 -88.698251 42 33052ft 466kts
28-Jan-17 02:40 37.360497 -88.577959 42 33047ft 463kts
28-Jan-17 02:41 37.445047 -88.457619 42 33025ft 462kts
28-Jan-17 02:42 37.523503 -88.345549 42 33024ft 462kts
28-Jan-17 02:43 37.607709 -88.225869 42 33018ft 462kts
28-Jan-17 02:44 37.692158 -88.104456 42 32992ft 463kts
28-Jan-17 02:45 37.776433 -87.982737 42 32995ft 463kts
28-Jan-17 02:46 37.860931 -87.860219 42 33018ft 462kts
28-Jan-17 02:47 37.934641 -87.726677 64 33021ft 481kts
28-Jan-17 02:48 37.972727 -87.563337 68 33019ft 484kts
28-Jan-17 02:49 38.009299 -87.399290 68 33019ft 485kts
28-Jan-17 02:50 38.045439 -87.237815 68 32987ft 485kts
28-Jan-17 02:51 38.081570 -87.073529 68 32987ft 485kts
28-Jan-17 02:52 38.116979 -86.910804 68 32999ft 485kts
28-Jan-17 02:53 38.152649 -86.745618 68 32999ft 485kts
28-Jan-17 02:54 38.187930 -86.581005 68 33000ft 485kts
28-Jan-17 02:55 38.223173 -86.415324 68 33001ft 485kts
28-Jan-17 02:56 38.258001 -86.252520 69 33022ft 485kts
28-Jan-17 02:57 38.292894 -86.086784 69 33023ft 486kts
28-Jan-17 02:58 38.327304 -85.921345 69 33023ft 486kts
28-Jan-17 02:59 38.361552 -85.755348 69 33024ft 486kts
28-Jan-17 03:00 38.395663 -85.588717 69 33025ft 486kts
28-Jan-17 03:01 38.429307 -85.423070 69 32999ft 486kts
28-Jan-17 03:02 38.462830 -85.258875 69 32993ft 486kts
28-Jan-17 03:03 38.496354 -85.092120 70 32993ft 486kts
28-Jan-17 03:04 38.529483 -84.925134 70 32994ft 486kts
28-Jan-17 03:05 38.562419 -84.758038 71 32951ft 492kts
28-Jan-17 03:06 38.595719 -84.587054 72 33767ft 496kts
28-Jan-17 03:07 38.628462 -84.417805 72 35020ft 493kts
28-Jan-17 03:08 38.671534 -84.256568 57 35885ft 482kts
28-Jan-17 03:09 38.734412 -84.105050 58 36605ft 483kts
28-Jan-17 03:10 38.796680 -83.953204 58 36934ft 484kts
28-Jan-17 03:11 38.859125 -83.800122 57 36948ft 493kts
28-Jan-17 03:12 38.922738 -83.643365 57 36916ft 498kts
28-Jan-17 03:13 38.986191 -83.486199 57 36943ft 498kts
28-Jan-17 03:14 39.049214 -83.329410 57 36937ft 499kts
28-Jan-17 03:15 39.112230 -83.173236 58 36911ft 499kts
28-Jan-17 03:16 39.175139 -83.015105 58 36946ft 500kts
28-Jan-17 03:17 39.238124 -82.855841 58 36943ft 500kts
28-Jan-17 03:18 39.300993 -82.696050 58 36944ft 501kts
28-Jan-17 03:19 39.363663 -82.535914 58 36919ft 501kts
28-Jan-17 03:20 39.425894 -82.376058 58 36920ft 501kts
28-Jan-17 03:21 39.488227 -82.216634 58 36911ft 503kts
28-Jan-17 03:22 39.550398 -82.055440 58 36886ft 503kts
28-Jan-17 03:23 39.612442 -81.893505 58 36887ft 504kts
28-Jan-17 03:24 39.674243 -81.731300 58 36888ft 504kts
28-Jan-17 03:25 39.736117 -81.568021 58 36890ft 504kts
28-Jan-17 03:26 39.797596 -81.404888 58 36891ft 505kts
28-Jan-17 03:27 39.858727 -81.243224 59 36803ft 505kts
28-Jan-17 03:28 39.920149 -81.078811 59 36803ft 506kts
28-Jan-17 03:29 39.981215 -80.914099 60 36783ft 508kts
28-Jan-17 03:30 40.040050 -80.748220 62 36815ft 510kts
28-Jan-17 03:31 40.096071 -80.579537 62 36808ft 509kts
28-Jan-17 03:32 40.151497 -80.411778 62 36813ft 510kts
28-Jan-17 03:33 40.207039 -80.244264 62 36803ft 511kts
28-Jan-17 03:34 40.262801 -80.073911 62 36778ft 511kts
28-Jan-17 03:35 40.318409 -79.902559 64 36766ft 513kts
28-Jan-17 03:36 40.373201 -79.732631 63 36813ft 513kts
28-Jan-17 03:37 40.428172 -79.561074 63 36799ft 513kts
28-Jan-17 03:38 40.483058 -79.388719 63 36785ft 513kts
28-Jan-17 03:39 40.537505 -79.218492 63 36776ft 514kts
28-Jan-17 03:40 40.592081 -79.045247 63 36777ft 515kts
28-Jan-17 03:41 40.646562 -78.870895 63 36779ft 515kts
28-Jan-17 03:42 40.700221 -78.697977 63 36725ft 511kts
28-Jan-17 03:43 40.754087 -78.523406 64 36729ft 516kts
28-Jan-17 03:44 40.807331 -78.349671 64 36744ft 517kts
28-Jan-17 03:45 40.860747 -78.176270 64 36724ft 517kts
28-Jan-17 03:46 40.911670 -77.999289 74 36744ft 522kts
28-Jan-17 03:47 40.931744 -77.808860 81 36752ft 524kts
28-Jan-17 03:48 40.947968 -77.616951 82 36755ft 525kts
28-Jan-17 03:49 40.963668 -77.425608 82 36746ft 527kts
28-Jan-17 03:50 40.979285 -77.236095 82 36776ft 526kts
28-Jan-17 03:51 40.994470 -77.044266 83 36776ft 526kts
28-Jan-17 03:52 41.009219 -76.852073 83 36724ft 526kts
28-Jan-17 03:53 41.026326 -76.659771 73 36722ft 525kts
28-Jan-17 03:54 41.071831 -76.477909 68 36730ft 524kts
28-Jan-17 03:55 41.109444 -76.331652 68 36725ft 524kts
28-Jan-17 03:56 41.154517 -76.157790 69 36708ft 526kts
28-Jan-17 03:57 41.200763 -75.975572 68 36721ft 525kts
28-Jan-17 03:58 41.247014 -75.791897 69 36699ft 526kts
28-Jan-17 03:59 41.290740 -75.606904 71 36703ft 527kts
28-Jan-17 04:00 41.331312 -75.419957 71 36704ft 527kts
28-Jan-17 04:01 41.358464 -75.295254 71 36640ft 527kts
28-Jan-17 04:02 41.398808 -75.108605 72 36691ft 528kts
28-Jan-17 04:03 41.438585 -74.921248 72 36645ft 528kts
28-Jan-17 04:04 41.477970 -74.733975 72 36648ft 527kts
28-Jan-17 04:05 41.517197 -74.545789 72 36666ft 528kts
28-Jan-17 04:06 41.556080 -74.357556 72 36678ft 529kts
28-Jan-17 04:07 41.594859 -74.171086 73 36672ft 529kts
28-Jan-17 04:08 41.633237 -73.982121 73 36670ft 529kts
28-Jan-17 04:09 41.670429 -73.791956 77 36670ft 530kts
28-Jan-17 04:10 41.699795 -73.599259 77 36670ft 531kts
28-Jan-17 04:11 41.728973 -73.407394 77 36652ft 530kts
28-Jan-17 04:12 41.752056 -73.257049 77 36640ft 530kts
28-Jan-17 04:13 41.781039 -73.063915 77 36669ft 530kts
28-Jan-17 04:14 41.809466 -72.870962 79 36654ft 532kts
28-Jan-17 04:15 41.837708 -72.676611 79 36648ft 532kts
28-Jan-17 04:16 41.865494 -72.483079 79 36623ft 531kts
28-Jan-17 04:17 41.892774 -72.292527 79 36639ft 531kts
28-Jan-17 04:18 41.920296 -72.098626 79 36569ft 531kts
28-Jan-17 04:19 41.947101 -71.904769 79 36616ft 531kts
28-Jan-17 04:20 41.960823 -71.707734 88 36621ft 530kts
28-Jan-17 04:21 41.968722 -71.510785 88 36624ft 530kts
28-Jan-17 04:22 41.976163 -71.315744 88 36615ft 529kts
28-Jan-17 04:23 41.983759 -71.119003 89 36616ft 529kts
28-Jan-17 04:24 41.990531 -70.921749 89 36619ft 529kts
28-Jan-17 04:25 41.996936 -70.724693 89 36621ft 529kts
28-Jan-17 04:26 42.002984 -70.528221 89 36595ft 528kts
28-Jan-17 04:27 42.008722 -70.331427 89 36593ft 528kts
28-Jan-17 04:28 42.014695 -70.134746 89 36589ft 528kts
28-Jan-17 04:29 42.038312 -69.941087 73 36601ft 530kts
28-Jan-17 04:30 42.079093 -69.751085 73 36594ft 529kts
28-Jan-17 04:31 42.119414 -69.562257 73 36592ft 529kts
28-Jan-17 04:32 42.159640 -69.372215 73 36595ft 529kts
28-Jan-17 04:33 42.200044 -69.182514 74 36587ft 529kts
28-Jan-17 04:34 42.239583 -68.992596 74 36588ft 529kts
28-Jan-17 04:35 42.278941 -68.801482 74 36590ft 528kts
28-Jan-17 04:36 42.317829 -68.610920 74 36594ft 526kts
28-Jan-17 04:37 42.356267 -68.420698 74 36594ft 526kts
28-Jan-17 04:38 42.394693 -68.231420 75 36612ft 526kts
28-Jan-17 04:39 42.432500 -68.041517 75 36453ft 525kts
28-Jan-17 04:40 42.470006 -67.850611 75 36455ft 525kts
28-Jan-17 04:41 42.507027 -67.660321 75 36376ft 524kts
28-Jan-17 04:42 42.543869 -67.469091 75 36379ft 525kts
28-Jan-17 04:43 42.580528 -67.278812 75 36369ft 524kts
28-Jan-17 04:44 42.616967 -67.087507 76 36372ft 524kts
28-Jan-17 04:45 42.666748 -66.902716 64 36380ft 524kts
28-Jan-17 04:46 42.727938 -66.723242 64 36377ft 524kts
28-Jan-17 04:47 42.788739 -66.543777 64 36379ft 524kts
28-Jan-17 04:48 42.849143 -66.364309 64 36381ft 524kts
28-Jan-17 04:49 42.909940 -66.184417 65 36373ft 523kts
28-Jan-17 04:50 42.969975 -66.003846 65 36375ft 523kts
28-Jan-17 04:51 43.029535 -65.823316 65 36377ft 523kts
28-Jan-17 04:52 43.088933 -65.642051 65 36379ft 523kts
28-Jan-17 04:53 43.147684 -65.461531 65 36376ft 523kts
28-Jan-17 04:54 43.206352 -65.281269 65 36578ft 523kts
28-Jan-17 04:55 43.265117 -65.099235 65 36971ft 523kts
28-Jan-17 04:56 43.323235 -64.917023 65 36994ft 523kts
28-Jan-17 04:57 43.381185 -64.734036 66 36996ft 523kts
28-Jan-17 04:58 43.438596 -64.551473 66 36998ft 522kts
28-Jan-17 04:59 43.495942 -64.367844 66 37000ft 522kts
28-Jan-17 05:00 43.553235 -64.185203 66 36992ft 522kts
28-Jan-17 05:01 43.610007 -64.001050 66 36994ft 522kts
28-Jan-17 05:02 43.666200 -63.817268 66 36997ft 522kts
28-Jan-17 05:03 43.722184 -63.632846 66 36999ft 522kts
28-Jan-17 05:04 43.776579 -63.452356 66 36988ft 501kts
28-Jan-17 05:05 43.830472 -63.273743 66 36993ft 503kts
28-Jan-17 05:06 43.883802 -63.095252 67 36994ft 503kts
28-Jan-17 05:07 43.936596 -62.916423 67 36996ft 503kts
28-Jan-17 05:08 43.989149 -62.737086 67 37001ft 504kts
28-Jan-17 05:09 44.041421 -62.557439 67 36999ft 503kts
28-Jan-17 05:10 44.093432 -62.377395 67 37000ft 503kts
28-Jan-17 05:11 44.145545 -62.197897 68 36992ft 504kts
28-Jan-17 05:12 44.197075 -62.017215 68 36993ft 504kts
28-Jan-17 05:13 44.248212 -61.836305 68 36999ft 504kts
28-Jan-17 05:14 44.299125 -61.654855 68 36996ft 504kts
28-Jan-17 05:15 44.349897 -61.472556 68 36997ft 504kts
28-Jan-17 05:16 44.400373 -61.291102 68 36991ft 504kts
28-Jan-17 05:17 44.450925 -61.108280 68 36993ft 504kts
28-Jan-17 05:18 44.500806 -60.925178 68 36994ft 505kts
28-Jan-17 05:19 44.550222 -60.742322 69 36934ft 505kts
28-Jan-17 05:20 44.599730 -60.557865 70 36504ft 512kts
28-Jan-17 05:21 44.649240 -60.371683 70 36792ft 512kts
28-Jan-17 05:22 44.699111 -60.185248 70 36989ft 512kts
28-Jan-17 05:23 44.748233 -59.998024 71 36629ft 512kts
28-Jan-17 05:24 44.788870 -59.841771 71 36334ft 511kts
28-Jan-17 05:25 44.845353 -59.622802 70 36568ft 511kts
28-Jan-17 05:26 44.893381 -59.435021 71 36438ft 511kts
28-Jan-17 05:27 44.941702 -59.246561 71 36322ft 512kts
28-Jan-17 05:28 44.989335 -59.058010 71 36321ft 511kts
28-Jan-17 05:29 45.036471 -58.869168 71 36168ft 511kts
28-Jan-17 05:30 45.083248 -58.680149 71 36163ft 511kts
28-Jan-17 05:31 45.129413 -58.492034 71 36159ft 512kts
28-Jan-17 05:32 45.167713 -58.334817 72 36156ft 511kts
28-Jan-17 05:33 45.214306 -58.144812 72 36153ft 511kts
28-Jan-17 05:34 45.260049 -57.954093 72 36155ft 511kts
28-Jan-17 05:35 45.312793 -57.731936 72 36203ft 511kts
28-Jan-17 05:36 45.350228 -57.572884 72 36212ft 511kts
28-Jan-17 05:37 45.402253 -57.349910 73 36214ft 511kts
28-Jan-17 05:38 45.439877 -57.189992 73 36209ft 511kts
28-Jan-17 05:39 45.483921 -56.998393 73 36210ft 511kts
28-Jan-17 05:40 45.527601 -56.806312 73 36212ft 511kts
28-Jan-17 05:41 45.570998 -56.613754 73 36214ft 511kts
28-Jan-17 05:42 45.614133 -56.420611 73 36215ft 511kts
28-Jan-17 05:43 45.657254 -56.228298 74 36210ft 511kts
28-Jan-17 05:44 45.699727 -56.035319 74 36211ft 510kts
28-Jan-17 05:45 45.741826 -55.841591 74 36213ft 510kts
28-Jan-17 05:46 45.783515 -55.647931 74 36214ft 510kts
28-Jan-17 05:47 45.824835 -55.454168 74 36217ft 510kts
28-Jan-17 05:48 45.866304 -55.260028 74 36211ft 510kts
28-Jan-17 05:49 45.907305 -55.065254 75 36213ft 510kts
28-Jan-17 05:50 45.947668 -54.870538 75 36214ft 510kts
28-Jan-17 05:51 45.987650 -54.675716 75 36445ft 510kts
28-Jan-17 05:52 46.027280 -54.480707 74 36918ft 510kts
28-Jan-17 05:53 46.067064 -54.284678 75 36994ft 510kts
28-Jan-17 05:54 46.106008 -54.091082 75 36992ft 510kts
28-Jan-17 05:55 46.144809 -53.894484 75 36992ft 510kts
28-Jan-17 05:56 46.183153 -53.698135 75 36994ft 510kts
28-Jan-17 05:57 46.221204 -53.501279 75 36996ft 510kts
28-Jan-17 05:58 46.259084 -53.304248 75 36990ft 510kts
28-Jan-17 05:59 46.296900 -53.107197 76 36992ft 510kts
28-Jan-17 06:00 46.333899 -52.909856 76 36993ft 510kts
28-Jan-17 06:01 46.370510 -52.712367 76 36995ft 510kts
28-Jan-17 06:02 46.406822 -52.514386 76 36997ft 510kts
28-Jan-17 06:03 46.442868 -52.316244 76 36992ft 510kts
28-Jan-17 06:04 46.479124 -52.117525 77 36993ft 510kts
28-Jan-17 06:05 46.520003 -51.921363 69 37001ft 511kts
28-Jan-17 06:06 46.570368 -51.728261 70 36997ft 511kts
28-Jan-17 06:07 46.619820 -51.535372 70 36998ft 511kts
28-Jan-17 06:08 46.669045 -51.341651 71 36999ft 511kts
28-Jan-17 06:09 46.718390 -51.148537 71 36952ft 512kts
28-Jan-17 06:10 46.766917 -50.954473 71 36584ft 511kts
28-Jan-17 06:11 46.815173 -50.759627 71 36248ft 511kts
28-Jan-17 06:12 46.862963 -50.564959 71 36241ft 511kts
28-Jan-17 06:13 46.910554 -50.369415 71 36218ft 511kts
28-Jan-17 06:14 46.958210 -50.174638 72 36212ft 511kts
28-Jan-17 06:15 47.005232 -49.979190 71 36212ft 509kts
28-Jan-17 06:16 47.053887 -49.785252 71 36215ft 508kts
28-Jan-17 06:17 47.102085 -49.591208 71 36216ft 508kts
28-Jan-17 06:18 47.150037 -49.396442 71 36212ft 508kts
28-Jan-17 06:19 47.198161 -49.201883 71 36207ft 508kts
28-Jan-17 06:20 47.245411 -49.007050 71 36208ft 508kts
28-Jan-17 06:21 47.292334 -48.811418 71 36210ft 508kts
28-Jan-17 06:22 47.338868 -48.615656 71 36212ft 508kts
28-Jan-17 06:23 47.385064 -48.419562 71 36214ft 508kts
28-Jan-17 06:24 47.431456 -48.223360 72 36209ft 508kts
28-Jan-17 06:25 47.477161 -48.026461 72 36210ft 507kts
28-Jan-17 06:26 47.522284 -47.829645 72 36213ft 505kts
28-Jan-17 06:27 47.566834 -47.633520 72 36213ft 505kts
28-Jan-17 06:28 47.611210 -47.436331 72 36215ft 505kts
28-Jan-17 06:29 47.655793 -47.238786 73 36210ft 505kts
28-Jan-17 06:30 47.699496 -47.041777 73 36211ft 505kts
28-Jan-17 06:31 47.742927 -46.843300 73 36213ft 505kts
28-Jan-17 06:32 47.785916 -46.644915 73 36215ft 505kts
28-Jan-17 06:33 47.828490 -46.446536 73 36216ft 505kts
28-Jan-17 06:34 47.871215 -46.247890 73 36211ft 505kts
28-Jan-17 06:35 47.913492 -46.048059 74 36213ft 505kts
28-Jan-17 06:36 47.955069 -45.848588 74 36214ft 505kts
28-Jan-17 06:37 47.996299 -45.648756 74 36216ft 505kts
28-Jan-17 06:38 48.037323 -45.447905 74 36218ft 505kts
28-Jan-17 06:39 48.078255 -45.247939 74 36213ft 505kts
28-Jan-17 06:40 48.118659 -45.047165 75 36207ft 505kts
28-Jan-17 06:41 48.158473 -44.846209 75 36209ft 505kts
28-Jan-17 06:42 48.198018 -44.644470 75 36211ft 505kts
28-Jan-17 06:43 48.237186 -44.442540 75 36212ft 505kts
28-Jan-17 06:44 48.276453 -44.240671 75 36207ft 505kts
28-Jan-17 06:45 48.315047 -44.038495 76 36209ft 505kts
28-Jan-17 06:46 48.353198 -43.835434 76 36210ft 505kts
28-Jan-17 06:47 48.390948 -43.632085 73 36214ft 508kts
28-Jan-17 06:48 48.428531 -43.427715 73 36214ft 508kts
28-Jan-17 06:49 48.466165 -43.223737 74 36209ft 508kts
28-Jan-17 06:50 48.503158 -43.018772 74 36210ft 508kts
28-Jan-17 06:51 48.539694 -42.813137 74 36212ft 508kts
28-Jan-17 06:52 48.575760 -42.607757 74 36214ft 508kts
28-Jan-17 06:53 48.611467 -42.402040 74 36215ft 508kts
28-Jan-17 06:54 48.647481 -42.195725 75 36209ft 508kts
28-Jan-17 06:55 48.682540 -41.989569 75 36211ft 508kts
28-Jan-17 06:56 48.717179 -41.782794 75 36213ft 508kts
28-Jan-17 06:57 48.751351 -41.576302 75 36214ft 508kts
28-Jan-17 06:58 48.785340 -41.368374 75 36216ft 508kts
28-Jan-17 06:59 48.819485 -41.160990 76 36210ft 508kts
28-Jan-17 07:00 48.852639 -40.953484 76 36211ft 508kts
28-Jan-17 07:01 48.885469 -40.744956 76 36213ft 508kts
28-Jan-17 07:02 48.917884 -40.536396 75 36215ft 508kts
28-Jan-17 07:03 48.949889 -40.327967 76 36212ft 508kts
28-Jan-17 07:04 48.982246 -40.118680 76 36210ft 508kts
28-Jan-17 07:05 49.020799 -39.913077 66 36220ft 507kts
28-Jan-17 07:06 49.071748 -39.713546 67 36214ft 507kts
28-Jan-17 07:07 49.121568 -39.512712 67 36213ft 507kts
28-Jan-17 07:08 49.171062 -39.311651 67 36207ft 507kts
28-Jan-17 07:09 49.220799 -39.109724 68 36209ft 507kts
28-Jan-17 07:10 49.269462 -38.907984 68 36211ft 507kts
28-Jan-17 07:11 49.317718 -38.705952 68 36212ft 507kts
28-Jan-17 07:12 49.365749 -38.502964 68 36214ft 507kts
28-Jan-17 07:13 49.413689 -38.299421 68 36207ft 507kts
28-Jan-17 07:14 49.461350 -38.096404 69 36209ft 507kts
28-Jan-17 07:15 49.508378 -37.892052 69 36211ft 507kts
28-Jan-17 07:16 49.554925 -37.687728 69 36213ft 507kts
28-Jan-17 07:17 49.600977 -37.483610 69 36215ft 507kts
28-Jan-17 07:18 49.647219 -37.278307 69 36208ft 507kts
28-Jan-17 07:19 49.693009 -37.073023 69 36210ft 507kts
28-Jan-17 07:20 49.738039 -36.867554 69 36212ft 507kts
28-Jan-17 07:21 49.782825 -36.661060 69 36213ft 507kts
28-Jan-17 07:22 49.827140 -36.454655 69 36215ft 507kts
28-Jan-17 07:23 49.871711 -36.247349 70 36209ft 507kts
28-Jan-17 07:24 49.915530 -36.040192 70 36210ft 507kts
28-Jan-17 07:25 49.958838 -35.832232 70 36212ft 507kts
28-Jan-17 07:26 50.001745 -35.623987 70 36214ft 507kts
28-Jan-17 07:27 50.044343 -35.415050 70 36215ft 507kts
28-Jan-17 07:28 50.087033 -35.206487 71 36209ft 507kts
28-Jan-17 07:29 50.128934 -34.997230 71 36210ft 508kts
28-Jan-17 07:30 50.170352 -34.787461 71 36212ft 507kts
28-Jan-17 07:31 50.211341 -34.577567 71 36214ft 507kts
28-Jan-17 07:32 50.251991 -34.367099 71 36215ft 507kts
28-Jan-17 07:33 50.292863 -34.156747 71 36226ft 507kts
28-Jan-17 07:34 50.332873 -33.945297 71 36518ft 508kts
28-Jan-17 07:35 50.371558 -33.738191 71 36857ft 493kts
28-Jan-17 07:36 50.409500 -33.532763 72 37042ft 493kts
28-Jan-17 07:37 50.447075 -33.327193 72 36834ft 490kts
28-Jan-17 07:38 50.484794 -33.122167 72 37075ft 493kts
28-Jan-17 07:39 50.521452 -32.916815 70 37065ft 482kts
28-Jan-17 07:40 50.557463 -32.713098 70 37076ft 484kts
28-Jan-17 07:41 50.593076 -32.509044 70 37077ft 484kts
28-Jan-17 07:42 50.628465 -32.304891 70 37072ft 484kts
28-Jan-17 07:43 50.663824 -32.100766 71 37074ft 485kts
28-Jan-17 07:44 50.698354 -31.896038 71 37074ft 485kts
28-Jan-17 07:45 50.732403 -31.691543 71 37066ft 484kts
28-Jan-17 07:46 50.766234 -31.485908 71 37077ft 485kts
28-Jan-17 07:47 50.800040 -31.280005 71 37072ft 485kts
28-Jan-17 07:48 50.833831 -31.072189 74 37071ft 496kts
28-Jan-17 07:49 50.867963 -30.856711 74 37083ft 512kts
28-Jan-17 07:50 50.902032 -30.638832 74 37078ft 512kts
28-Jan-17 07:51 50.935759 -30.420243 74 37080ft 512kts
28-Jan-17 07:52 50.969672 -30.201372 74 37069ft 510kts
28-Jan-17 07:53 50.998546 -29.981287 82 37078ft 514kts
28-Jan-17 07:54 51.009954 -29.755325 85 37077ft 514kts
28-Jan-17 07:55 51.018889 -29.529737 85 37079ft 514kts
28-Jan-17 07:56 51.027426 -29.303504 85 37072ft 514kts
28-Jan-17 07:57 51.035901 -29.077960 86 36898ft 514kts
28-Jan-17 07:58 51.043441 -28.851458 86 36835ft 514kts
28-Jan-17 07:59 51.050483 -28.625662 86 36835ft 514kts
28-Jan-17 08:00 51.057125 -28.398723 86 36837ft 514kts
28-Jan-17 08:01 51.063940 -28.172590 87 36830ft 514kts
28-Jan-17 08:02 51.069781 -27.946358 87 36832ft 514kts
28-Jan-17 08:03 51.074978 -27.720323 83 36824ft 503kts
28-Jan-17 08:04 51.079887 -27.497163 83 36830ft 506kts
28-Jan-17 08:05 51.084618 -27.274047 84 36825ft 506kts
28-Jan-17 08:06 51.088944 -27.050824 84 36827ft 506kts
28-Jan-17 08:07 51.092498 -26.827159 84 36828ft 506kts
28-Jan-17 08:08 51.095603 -26.603928 84 36830ft 506kts
28-Jan-17 08:09 51.098284 -26.380397 84 36832ft 506kts
28-Jan-17 08:10 51.101198 -26.156485 85 36834ft 507kts
28-Jan-17 08:11 51.103098 -25.932735 85 36850ft 508kts
28-Jan-17 08:12 51.104512 -25.708156 85 36865ft 508kts
28-Jan-17 08:13 51.105485 -25.483979 85 36866ft 508kts
28-Jan-17 08:14 51.106448 -25.260129 85 36860ft 508kts
28-Jan-17 08:15 51.106873 -25.035215 86 36862ft 509kts
28-Jan-17 08:16 51.106573 -24.810727 86 36864ft 509kts
28-Jan-17 08:17 51.105830 -24.586370 86 36865ft 509kts
28-Jan-17 08:18 51.104656 -24.361911 86 36867ft 509kts
28-Jan-17 08:19 51.103731 -24.137130 86 36861ft 509kts
28-Jan-17 08:20 51.101753 -23.912115 86 36863ft 509kts
28-Jan-17 08:21 51.099293 -23.687878 86 36865ft 509kts
28-Jan-17 08:22 51.096387 -23.462651 86 36866ft 509kts
28-Jan-17 08:23 51.093566 -23.238380 87 36861ft 509kts
28-Jan-17 08:24 51.090039 -23.013840 87 36862ft 509kts
28-Jan-17 08:25 51.085848 -22.788592 87 36864ft 509kts
28-Jan-17 08:26 51.081233 -22.564303 87 36866ft 509kts
28-Jan-17 08:27 51.076173 -22.339323 88 36866ft 509kts
28-Jan-17 08:28 51.071380 -22.114540 88 36861ft 510kts
28-Jan-17 08:29 51.065497 -21.889529 88 36863ft 510kts
28-Jan-17 08:30 51.059158 -21.665209 88 36865ft 510kts
28-Jan-17 08:31 51.052364 -21.440230 88 36867ft 510kts
28-Jan-17 08:32 51.045727 -21.216011 89 36861ft 510kts
28-Jan-17 08:33 51.038248 -20.991260 89 36863ft 510kts
28-Jan-17 08:34 51.030162 -20.766290 89 36865ft 510kts
28-Jan-17 08:35 51.021662 -20.542029 89 36866ft 510kts
28-Jan-17 08:36 51.012773 -20.317222 89 36862ft 510kts
28-Jan-17 08:37 51.004061 -20.093208 90 36862ft 511kts
28-Jan-17 08:38 51.002331 -19.869116 83 36868ft 507kts
28-Jan-17 08:39 51.006818 -19.645657 83 36866ft 507kts
28-Jan-17 08:40 51.010550 -19.422428 83 36868ft 507kts
28-Jan-17 08:41 51.014438 -19.199098 84 36861ft 508kts
28-Jan-17 08:42 51.017440 -18.975482 84 36863ft 508kts
28-Jan-17 08:43 51.019886 -18.751598 84 36865ft 508kts
28-Jan-17 08:44 51.021893 -18.528159 84 36867ft 508kts
28-Jan-17 08:45 51.023628 -18.304065 84 36860ft 508kts
28-Jan-17 08:46 51.025349 -18.080522 85 36862ft 508kts
28-Jan-17 08:47 51.026106 -17.856134 85 36864ft 508kts
28-Jan-17 08:48 51.026408 -17.632365 85 36866ft 508kts
28-Jan-17 08:49 51.026279 -17.408311 85 36867ft 508kts
28-Jan-17 08:50 51.026348 -17.184027 86 36861ft 509kts
28-Jan-17 08:51 51.025479 -16.960275 86 36863ft 509kts
28-Jan-17 08:52 51.024066 -16.735686 86 36865ft 509kts
28-Jan-17 08:53 51.022223 -16.511604 86 36867ft 509kts
28-Jan-17 08:54 51.020218 -16.287294 86 36861ft 510kts
28-Jan-17 08:55 51.017964 -16.062694 87 36862ft 510kts
28-Jan-17 08:56 51.014842 -15.837809 87 36864ft 510kts
28-Jan-17 08:57 51.011276 -15.613363 87 36866ft 510kts
28-Jan-17 08:58 51.007265 -15.388239 87 36868ft 510kts
28-Jan-17 08:59 51.003488 -15.163694 88 36861ft 510kts
28-Jan-17 09:00 51.000158 -14.939177 85 36864ft 509kts
28-Jan-17 09:01 51.000728 -14.714839 85 36865ft 509kts
28-Jan-17 09:02 51.000762 -14.490494 85 36867ft 509kts
28-Jan-17 09:03 51.000753 -14.266625 86 36861ft 509kts
28-Jan-17 09:04 51.000362 -14.041930 84 36861ft 508kts
28-Jan-17 09:05 51.026323 -13.824978 71 36864ft 500kts
28-Jan-17 09:06 51.057793 -13.610705 71 36866ft 500kts
28-Jan-17 09:07 51.088962 -13.396261 71 36867ft 500kts
28-Jan-17 09:08 51.120448 -13.181191 72 36860ft 500kts
28-Jan-17 09:09 51.151056 -12.965369 72 36862ft 500kts
28-Jan-17 09:10 51.181142 -12.749424 72 36863ft 500kts
28-Jan-17 09:11 51.210835 -12.533129 72 36865ft 500kts
28-Jan-17 09:12 51.240204 -12.316566 72 36859ft 500kts
28-Jan-17 09:13 51.269728 -12.099847 73 36860ft 501kts
28-Jan-17 09:14 51.298304 -11.882350 73 36861ft 501kts
28-Jan-17 09:15 51.326371 -11.665149 73 36889ft 501kts
28-Jan-17 09:16 51.354054 -11.447520 73 36891ft 501kts
28-Jan-17 09:17 51.380853 -11.237683 73 36886ft 501kts
28-Jan-17 09:18 51.408031 -11.019055 73 36886ft 502kts
28-Jan-17 09:19 51.434563 -10.800344 73 36888ft 502kts
28-Jan-17 09:20 51.460785 -10.580463 73 36889ft 502kts
28-Jan-17 09:21 51.486457 -10.361511 73 36891ft 502kts
28-Jan-17 09:22 51.512259 -10.143641 74 36884ft 502kts
28-Jan-17 09:23 51.537289 -9.923262 74 36886ft 502kts
28-Jan-17 09:24 51.557685 -9.740269 74 36887ft 502kts
28-Jan-17 09:25 51.585913 -9.482371 74 36889ft 502kts
28-Jan-17 09:26 51.609841 -9.263252 75 36883ft 503kts
28-Jan-17 09:27 51.633517 -9.041521 75 36884ft 503kts
28-Jan-17 09:28 51.656378 -8.820431 75 36886ft 503kts
28-Jan-17 09:29 51.678864 -8.598575 75 36887ft 503kts
28-Jan-17 09:30 51.700929 -8.376508 75 36889ft 503kts
28-Jan-17 09:31 51.723193 -8.154789 76 36882ft 503kts
28-Jan-17 09:32 51.740970 -7.969579 76 36884ft 503kts
28-Jan-17 09:33 51.755587 -7.744653 82 36888ft 507kts
28-Jan-17 09:34 51.761783 -7.517891 83 36887ft 508kts
28-Jan-17 09:35 51.768412 -7.253351 83 36882ft 508kts
28-Jan-17 09:36 51.772735 -7.063832 83 36883ft 508kts
28-Jan-17 09:37 51.777214 -6.836113 84 36885ft 508kts
28-Jan-17 09:38 51.781228 -6.608592 84 36886ft 508kts
28-Jan-17 09:39 51.774605 -6.380651 89 36889ft 511kts
28-Jan-17 09:40 51.765901 -6.154412 90 36909ft 511kts
28-Jan-17 09:41 51.755990 -5.925380 90 36911ft 512kts
28-Jan-17 09:42 51.745599 -5.697446 90 36913ft 512kts
28-Jan-17 09:43 51.734720 -5.468722 90 36915ft 512kts
28-Jan-17 09:44 51.724032 -5.243473 91 36909ft 512kts
28-Jan-17 09:45 51.712456 -5.015152 91 36911ft 512kts
28-Jan-17 09:46 51.700171 -4.786519 91 36913ft 512kts
28-Jan-17 09:47 51.687487 -4.558995 91 36915ft 512kts
28-Jan-17 09:48 51.676786 -4.373014 91 36916ft 512kts
28-Jan-17 09:49 51.676786 -4.373014 91 36916ft 512kts
28-Jan-17 09:50 51.676786 -4.373014 91 36916ft 512kts
28-Jan-17 09:51 51.676786 -4.373014 91 36916ft 512kts
28-Jan-17 09:52 51.676786 -4.373014 91 36916ft 512kts
28-Jan-17 09:53 51.676786 -4.373014 91 36916ft 512kts
28-Jan-17 09:54 51.676786 -4.373014 91 36916ft 512kts
28-Jan-17 09:55 51.676786 -4.373014 91 36916ft 512kts
28-Jan-17 09:56 51.676786 -4.373014 91 36916ft 512kts
28-Jan-17 09:57 51.676786 -4.373014 91 36916ft 512kts
28-Jan-17 09:58 51.676786 -4.373014 91 36916ft 512kts
28-Jan-17 09:59 51.676786 -4.373014 91 36916ft 512kts
28-Jan-17 10:00 51.676786 -4.373014 91 36916ft 512kts
28-Jan-17 10:01 51.676786 -4.373014 91 36916ft 512kts
28-Jan-17 10:02 51.676786 -4.373014 91 36916ft 512kts
28-Jan-17 10:03 51.676786 -4.373014 91 36916ft 512kts
28-Jan-17 10:04 51.676786 -4.373014 91 36916ft 512kts
28-Jan-17 10:05 51.676786 -4.373014 91 36916ft 512kts
28-Jan-17 10:06 51.676786 -4.373014 91 36916ft 512kts
28-Jan-17 10:07 51.676786 -4.373014 91 36916ft 512kts
28-Jan-17 10:08 51.676786 -4.373014 91 36916ft 512kts
28-Jan-17 10:09 51.676786 -4.373014 91 36916ft 512kts
28-Jan-17 10:10 51.676786 -4.373014 91 36916ft 512kts
28-Jan-17 10:11 51.676786 -4.373014 91 36916ft 512kts
28-Jan-17 10:12 51.676786 -4.373014 91 36916ft 512kts
28-Jan-17 10:13 51.676786 -4.373014 91 36916ft 512kts
28-Jan-17 10:14 51.676786 -4.373014 91 36916ft 512kts
28-Jan-17 10:15 51.676786 -4.373014 91 36916ft 512kts
28-Jan-17 10:16 51.676786 -4.373014 91 36916ft 512kts
28-Jan-17 10:17 51.676786 -4.373014 91 36916ft 512kts
28-Jan-17 10:18 51.676786 -4.373014 91 36916ft 512kts
28-Jan-17 10:19 51.676786 -4.373014 91 36916ft 512kts
28-Jan-17 10:20 51.676786 -4.373014 91 36916ft 512kts
28-Jan-17 10:21 51.676786 -4.373014 91 36916ft 512kts
28-Jan-17 10:22 51.676786 -4.373014 91 36916ft 512kts
28-Jan-17 10:23 51.676786 -4.373014 91 36916ft 512kts
28-Jan-17 10:24 51.676786 -4.373014 91 36916ft 512kts
28-Jan-17 10:25 51.676786 -4.373014 91 36916ft 512kts
28-Jan-17 10:26 51.676786 -4.373014 91 36916ft 512kts
28-Jan-17 10:27 51.676786 -4.373014 91 36916ft 512kts
28-Jan-17 10:28 51.676786 -4.373014 91 36916ft 512kts
28-Jan-17 10:29 51.676786 -4.373014 91 36916ft 512kts
28-Jan-17 10:30 51.676786 -4.373014 91 36916ft 512kts
28-Jan-17 10:31 51.676786 -4.373014 91 36916ft 512kts
28-Jan-17 10:32 51.676786 -4.373014 91 36916ft 512kts
28-Jan-17 10:33 51.676786 -4.373014 91 36916ft 512kts
28-Jan-17 10:34 51.676786 -4.373014 91 36916ft 512kts
28-Jan-17 10:35 51.676786 -4.373014 91 36916ft 512kts
28-Jan-17 10:36 51.676786 -4.373014 91 36916ft 512kts
28-Jan-17 10:37 51.676786 -4.373014 91 36916ft 512kts
28-Jan-17 10:38 51.676786 -4.373014 91 36916ft 512kts
28-Jan-17 10:39 51.676786 -4.373014 91 36916ft 512kts
28-Jan-17 10:40 51.676786 -4.373014 91 36916ft 512kts
28-Jan-17 10:41 51.676786 -4.373014 91 36916ft 512kts
28-Jan-17 10:42 51.676786 -4.373014 91 36916ft 512kts
28-Jan-17 10:43 51.676786 -4.373014 91 36916ft 512kts
28-Jan-17 10:44 51.676786 -4.373014 91 36916ft 512kts
28-Jan-17 10:45 51.676786 -4.373014 91 36916ft 512kts
28-Jan-17 10:46 51.676786 -4.373014 91 36916ft 512kts
28-Jan-17 10:47 51.676786 -4.373014 91 36916ft 512kts
28-Jan-17 10:48 51.676786 -4.373014 91 36916ft 512kts
28-Jan-17 10:49 51.676786 -4.373014 91 36916ft 512kts
28-Jan-17 10:50 51.676786 -4.373014 91 36916ft 512kts
28-Jan-17 10:51 51.676786 -4.373014 91 36916ft 512kts
28-Jan-17 10:52 51.676786 -4.373014 91 36916ft 512kts
28-Jan-17 10:53 51.676786 -4.373014 91 36916ft 512kts
28-Jan-17 10:54 51.676786 -4.373014 91 36916ft 512kts
28-Jan-17 10:55 51.676786 -4.373014 91 36916ft 512kts
28-Jan-17 10:56 51.676786 -4.373014 91 36916ft 512kts
28-Jan-17 10:57 51.676786 -4.373014 91 36916ft 512kts
28-Jan-17 10:58 51.676786 -4.373014 91 36916ft 512kts
28-Jan-17 10:59 51.676786 -4.373014 91 36916ft 512kts
28-Jan-17 11:00 51.676786 -4.373014 91 36916ft 512kts
28-Jan-17 11:01 51.676786 -4.373014 91 36916ft 512kts
28-Jan-17 11:02 51.676786 -4.373014 91 36916ft 512kts
28-Jan-17 11:03 51.676786 -4.373014 91 36916ft 512kts
28-Jan-17 11:04 51.676786 -4.373014 91 36916ft 512kts
28-Jan-17 11:05 51.676786 -4.373014 91 36916ft 512kts
28-Jan-17 11:06 51.676786 -4.373014 91 36916ft 512kts
28-Jan-17 11:07 51.676786 -4.373014 91 36916ft 512kts
28-Jan-17 11:08 51.676786 -4.373014 91 36916ft 512kts
28-Jan-17 11:09 51.676786 -4.373014 91 36916ft 512kts
28-Jan-17 11:10 51.676786 -4.373014 91 36916ft 512kts
28-Jan-17 11:11 51.676786 -4.373014 91 36916ft 512kts
28-Jan-17 11:12 51.676786 -4.373014 91 36916ft 512kts
28-Jan-17 11:13 51.676786 -4.373014 91 36916ft 512kts
28-Jan-17 11:14 51.676786 -4.373014 91 36916ft 512kts
28-Jan-17 11:15 51.676786 -4.373014 91 36916ft 512kts
28-Jan-17 11:16 51.676786 -4.373014 91 36916ft 512kts
28-Jan-17 11:17 51.676786 -4.373014 91 36916ft 512kts
28-Jan-17 11:18 51.676786 -4.373014 91 36916ft 512kts
28-Jan-17 11:22 51.676786 -4.373014 91 36916ft 512kts
28-Jan-17 11:23 51.676786 -4.373014 91 36916ft 512kts
28-Jan-17 11:24 51.676786 -4.373014 91 36916ft 512kts
28-Jan-17 11:25 51.676786 -4.373014 91 36916ft 512kts
28-Jan-17 11:26 51.676786 -4.373014 91 36916ft 512kts
28-Jan-17 11:27 51.676786 -4.373014 91 36916ft 512kts
28-Jan-17 11:28 51.676786 -4.373014 91 36916ft 512kts
28-Jan-17 11:30 51.676786 -4.373014 91 36916ft 512kts
28-Jan-17 11:31 51.676786 -4.373014 91 36916ft 512kts
28-Jan-17 11:32 51.676786 -4.373014 91 36916ft 512kts
28-Jan-17 11:33 51.676786 -4.373014 91 36916ft 512kts
28-Jan-17 11:34 51.676786 -4.373014 91 36916ft 512kts
28-Jan-17 11:35 51.676786 -4.373014 91 36916ft 512kts
28-Jan-17 11:36 51.676786 -4.373014 91 36916ft 512kts
28-Jan-17 11:37 51.676786 -4.373014 91 36916ft 512kts
28-Jan-17 11:38 51.676786 -4.373014 91 36916ft 512kts
28-Jan-17 11:39 51.676786 -4.373014 91 36916ft 512kts
28-Jan-17 11:40 51.676786 -4.373014 91 36916ft 512kts
28-Jan-17 11:41 51.676786 -4.373014 91 36916ft 512kts
28-Jan-17 11:42 51.676786 -4.373014 91 36916ft 512kts
28-Jan-17 11:43 51.676786 -4.373014 91 36916ft 512kts
28-Jan-17 11:44 51.676786 -4.373014 91 36916ft 512kts
28-Jan-17 11:45 51.676786 -4.373014 91 36916ft 512kts
28-Jan-17 11:46 51.676786 -4.373014 91 36916ft 512kts
28-Jan-17 11:47 51.676786 -4.373014 91 36916ft 512kts
28-Jan-17 11:48 51.676786 -4.373014 91 36916ft 512kts
28-Jan-17 11:49 51.676786 -4.373014 91 36916ft 512kts
28-Jan-17 11:50 51.676786 -4.373014 91 36916ft 512kts
28-Jan-17 11:51 51.676786 -4.373014 91 36916ft 512kts
28-Jan-17 11:52 51.676786 -4.373014 91 36916ft 512kts
28-Jan-17 11:53 51.676786 -4.373014 91 36916ft 512kts
28-Jan-17 11:54 51.676786 -4.373014 91 36916ft 512kts
28-Jan-17 11:55 51.676786 -4.373014 91 36916ft 512kts
28-Jan-17 11:56 51.676786 -4.373014 91 36916ft 512kts
28-Jan-17 11:57 51.676786 -4.373014 91 36916ft 512kts
28-Jan-17 11:58 51.676786 -4.373014 91 36916ft 512kts
28-Jan-17 11:59 51.676786 -4.373014 91 36916ft 512kts
28-Jan-17 12:00 51.676786 -4.373014 91 36916ft 512kts
28-Jan-17 12:01 51.676786 -4.373014 91 36916ft 512kts
28-Jan-17 12:02 51.676786 -4.373014 91 36916ft 512kts
28-Jan-17 12:03 51.676786 -4.373014 91 36916ft 512kts
28-Jan-17 12:04 51.676786 -4.373014 91 36916ft 512kts
28-Jan-17 12:05 51.676786 -4.373014 91 36916ft 512kts
28-Jan-17 12:06 51.676786 -4.373014 91 36916ft 512kts
28-Jan-17 12:07 51.676786 -4.373014 91 36916ft 512kts
28-Jan-17 12:08 51.676786 -4.373014 91 36916ft 512kts
28-Jan-17 12:09 51.676786 -4.373014 91 36916ft 512kts
28-Jan-17 12:10 51.676786 -4.373014 91 36916ft 512kts
28-Jan-17 12:11 51.676786 -4.373014 91 36916ft 512kts
28-Jan-17 12:12 51.676786 -4.373014 91 36916ft 512kts
28-Jan-17 12:13 51.676786 -4.373014 91 36916ft 512kts
28-Jan-17 12:14 51.676786 -4.373014 91 36916ft 512kts
28-Jan-17 12:15 51.676786 -4.373014 91 36916ft 512kts
28-Jan-17 12:16 51.676786 -4.373014 91 36916ft 512kts
28-Jan-17 12:17 51.676786 -4.373014 91 36916ft 512kts
28-Jan-17 12:18 51.676786 -4.373014 91 36916ft 512kts
28-Jan-17 12:19 51.676786 -4.373014 91 36916ft 512kts
28-Jan-17 12:20 51.676786 -4.373014 91 36916ft 512kts
28-Jan-17 12:21 51.676786 -4.373014 91 36916ft 512kts
28-Jan-17 12:22 51.676786 -4.373014 91 36916ft 512kts
28-Jan-17 12:23 51.676786 -4.373014 91 36916ft 512kts
28-Jan-17 12:24 51.676786 -4.373014 91 36916ft 512kts
28-Jan-17 12:25 51.676786 -4.373014 91 36916ft 512kts
28-Jan-17 12:26 51.676786 -4.373014 91 36916ft 512kts
28-Jan-17 12:27 51.676786 -4.373014 91 36916ft 512kts
28-Jan-17 12:28 51.676786 -4.373014 91 36916ft 512kts
28-Jan-17 12:29 51.676786 -4.373014 91 36916ft 512kts
28-Jan-17 12:30 51.676786 -4.373014 91 36916ft 512kts
28-Jan-17 12:31 51.676786 -4.373014 91 36916ft 512kts
28-Jan-17 12:32 51.676786 -4.373014 91 36916ft 512kts
28-Jan-17 12:33 51.676786 -4.373014 91 36916ft 512kts
28-Jan-17 12:34 51.676786 -4.373014 91 36916ft 512kts
28-Jan-17 12:35 51.676567 -4.369248 91 36916ft 512kts
28-Jan-17 12:36 51.664549 -4.155310 92 36936ft 516kts
28-Jan-17 12:37 51.650975 -3.932619 92 36913ft 483kts
28-Jan-17 12:38 51.637548 -3.717230 92 36428ft 499kts
28-Jan-17 12:39 51.623293 -3.493172 92 33523ft 507kts
28-Jan-17 12:40 51.608535 -3.277053 97 30432ft 493kts
28-Jan-17 12:41 51.581175 -3.064337 98 27523ft 485kts
28-Jan-17 12:42 51.553329 -2.856857 98 24875ft 468kts
28-Jan-17 12:43 51.525973 -2.656033 98 22537ft 454kts
28-Jan-17 12:44 51.499105 -2.461371 98 20419ft 442kts
28-Jan-17 12:45 51.473580 -2.276280 99 18467ft 430kts
28-Jan-17 12:46 51.450364 -2.110597 100 16766ft 416kts
28-Jan-17 12:47 51.425206 -1.934322 100 14958ft 398kts
28-Jan-17 12:48 51.400904 -1.765878 101 13237ft 381kts
28-Jan-17 12:49 51.377150 -1.602974 101 12860ft 376kts
28-Jan-17 12:50 51.353217 -1.441098 101 12585ft 374kts
28-Jan-17 12:51 51.329944 -1.283331 101 12304ft 370kts
28-Jan-17 12:52 51.314866 -1.122717 84 12007ft 363kts
28-Jan-17 12:53 51.318951 -0.962677 84 11409ft 358kts
28-Jan-17 12:54 51.323038 -0.805475 85 10468ft 351kts
28-Jan-17 12:55 51.326485 -0.666668 85 9604ft 296kts
28-Jan-17 12:56 51.329591 -0.536416 85 8997ft 291kts
28-Jan-17 12:57 51.332371 -0.413973 85 8219ft 266kts
28-Jan-17 12:58 51.335123 -0.298682 85 7346ft 262kts
28-Jan-17 12:59 51.347738 -0.188198 71 6910ft 239kts
28-Jan-17 13:00 51.376641 -0.114421 350 6206ft 183kts
28-Jan-17 13:01 51.425099 -0.105304 14 5000ft 185kts
28-Jan-17 13:02 51.472004 -0.079122 349 3675ft 172kts
28-Jan-17 13:03 51.482118 -0.139704 262 2130ft 171kts
28-Jan-17 13:04 51.479046 -0.201590 266 1999ft 164kts
28-Jan-17 13:05 51.478043 -0.282146 268 1948ft 147kts
28-Jan-17 13:06 51.477811 -0.346012 268 1204ft 142kts
28-Jan-17 13:07 51.477847 -0.407989 267 443ft 138kts
28-Jan-17 13:08 51.477602 -0.449280 267 95ft 114kts
28-Jan-17 13:09 51.476547 -0.471098 114 94ft 11kts
28-Jan-17 13:10 51.474362 -0.467115 124 94ft 9kts
28-Jan-17 13:11 51.473882 -0.465955 126 94ft 0kts
28-Jan-17 13:12 51.473882 -0.465955 126 94ft 0kts
28-Jan-17 13:13 51.473882 -0.465955 126 94ft 0kts
28-Jan-17 13:14 51.473882 -0.465955 126 94ft 0kts
28-Jan-17 13:15 51.473882 -0.465955 126 94ft 0kts
28-Jan-17 13:16 51.473882 -0.465955 126 94ft 0kts

Navigation Log

Ident Type
Flight plan parsing failed, navigation log unavailable